Bellaire, MI

8:04 AM EDT on June 03, 2015 (GMT -0400)
Bellaire | | Change Station
CLOSE
Current Station
Personal Weather Station
Location: Bellaire, MI
Elevation: 748 ft
Nearby Weather Stations

Elev 748 ft 44.91 °N, 85.24 °W | Updated 3 minutes ago

Clear
Clear
55.0 °F
Feels Like 55.0 °F
N
2.0
Wind Variable Wind from WSW
Gusts 10.0 mph

Today
High -- | Low -- °F
--% Chance of Precip.
Yesterday
High -- | Low -- °F
Precip. -- in
5:56 AM 9:21 PM
Full, 99% visible
Pressure 30.13 in
Visibility 10.0 miles
Clouds Clear
Dew Point 47 °F
Humidity 75%
Rainfall 0.00 in
Snow Depth Not available.
UV 1 out of 12
Pollen 8.10 out of 12
Air Quality Not available.
Flu Activity Sporadic
METAR KACB 031155Z AUTO 17005KT 10SM CLR 14/08 A3013 RMK AO2 T01410083 10141 20047

More Conditions Fewer Conditions

Pressure 30.13 in
Visibility 10.0 miles
Clouds Clear
Dew Point 47 °F
Humidity 75%
Rainfall 0.00 in
Snow Depth Not available.
UV 1 out of 12
Pollen 8.10 out of 12
Air Quality Not available.
Flu Activity Sporadic
METAR KACB 031155Z AUTO 17005KT 10SM CLR 14/08 A3013 RMK AO2 T01410083 10141 20047

More Conditions Fewer Conditions

Nowcast | as of 8:00 am EDT on June 3, 2015

At 9 am...mostly clear. Temperature 58. South winds 7 mph. At 11 am...mostly clear. Temperature 66. South winds 8 mph. At 1 PM...mostly clear. Temperature 71. South winds 7 mph. At 3 PM...mostly clear. Temperature 74. South winds 7 mph.

×

10-Day Weather Forecast

×

Almanac

Astronomy

Jun. 03, 2015 Rise Set
Actual Time
Civil Twilight
Nautical Twilight
Astronomical Twilight
Moon
Length of Visible Light
Length of Day
Tomorrow will be .
, % of the Moon is Illuminated

Today's Extremes

State Highs State Lows

Community

WunderPhotos

Upload Photos

1,826,205 photos uploaded!

WunderBlogs® & News

Nearby

Air Quality

  Air Quality AQ Index Pollutant
Not available.

Snow Depth

Station Depth Elevation

Earthquake Activity

City Distance Mag. Time & Date
Minimum magnitude displayed is 2.5.

Coastal Water Temperatures

Place Temperature

Stations

Nearby Weather Stations

Station Location Temp. Windchill Dew Point Humidity Wind Precip. Elev Updated Type